sensor_id;sensor_type;location;lat;lon;timestamp;P1;durP1;ratioP1;P2;durP2;ratioP2
48403;SDS011;34202;52.536;6.042;2023-05-14T00:04:39;19.80;;;13.70;;
48403;SDS011;34202;52.536;6.042;2023-05-14T00:09:40;17.30;;;12.40;;
48403;SDS011;34202;52.536;6.042;2023-05-14T00:14:40;16.60;;;11.90;;
48403;SDS011;34202;52.536;6.042;2023-05-14T00:19:40;19.20;;;13.10;;
48403;SDS011;34202;52.536;6.042;2023-05-14T00:24:41;18.50;;;11.70;;
48403;SDS011;34202;52.536;6.042;2023-05-14T00:29:42;16.80;;;13.00;;
48403;SDS011;34202;52.536;6.042;2023-05-14T00:34:42;17.60;;;13.90;;
48403;SDS011;34202;52.536;6.042;2023-05-14T00:39:42;19.70;;;13.50;;
48403;SDS011;34202;52.536;6.042;2023-05-14T00:44:43;18.70;;;14.10;;
48403;SDS011;34202;52.536;6.042;2023-05-14T00:49:43;16.90;;;13.40;;
48403;SDS011;34202;52.536;6.042;2023-05-14T00:54:45;21.10;;;13.10;;
48403;SDS011;34202;52.536;6.042;2023-05-14T00:59:47;19.00;;;13.50;;
48403;SDS011;34202;52.536;6.042;2023-05-14T01:04:47;14.60;;;11.10;;
48403;SDS011;34202;52.536;6.042;2023-05-14T01:10:02;16.80;;;12.90;;
48403;SDS011;34202;52.536;6.042;2023-05-14T01:15:05;19.70;;;13.80;;
48403;SDS011;34202;52.536;6.042;2023-05-14T01:20:20;20.20;;;12.80;;
48403;SDS011;34202;52.536;6.042;2023-05-14T01:25:21;19.50;;;14.20;;
48403;SDS011;34202;52.536;6.042;2023-05-14T01:35:26;16.10;;;10.60;;
48403;SDS011;34202;52.536;6.042;2023-05-14T01:40:27;19.60;;;13.60;;
48403;SDS011;34202;52.536;6.042;2023-05-14T01:45:29;21.20;;;13.60;;
48403;SDS011;34202;52.536;6.042;2023-05-14T01:50:30;15.50;;;12.90;;
48403;SDS011;34202;52.536;6.042;2023-05-14T01:55:31;18.30;;;13.30;;
48403;SDS011;34202;52.536;6.042;2023-05-14T02:00:31;16.80;;;12.40;;
48403;SDS011;34202;52.536;6.042;2023-05-14T02:05:32;16.20;;;13.40;;
48403;SDS011;34202;52.536;6.042;2023-05-14T02:10:32;19.10;;;12.70;;
48403;SDS011;34202;52.536;6.042;2023-05-14T02:15:32;17.60;;;13.50;;
48403;SDS011;34202;52.536;6.042;2023-05-14T02:20:33;21.00;;;15.00;;
48403;SDS011;34202;52.536;6.042;2023-05-14T02:25:33;21.60;;;13.00;;
48403;SDS011;34202;52.536;6.042;2023-05-14T02:30:33;19.90;;;14.40;;
48403;SDS011;34202;52.536;6.042;2023-05-14T02:35:34;15.90;;;12.00;;
48403;SDS011;34202;52.536;6.042;2023-05-14T02:40:35;18.20;;;13.30;;
48403;SDS011;34202;52.536;6.042;2023-05-14T02:45:36;26.20;;;14.60;;
48403;SDS011;34202;52.536;6.042;2023-05-14T02:50:36;21.10;;;15.10;;
48403;SDS011;34202;52.536;6.042;2023-05-14T02:55:36;18.50;;;15.30;;
48403;SDS011;34202;52.536;6.042;2023-05-14T03:00:37;19.50;;;14.70;;
48403;SDS011;34202;52.536;6.042;2023-05-14T03:05:37;17.20;;;12.90;;
48403;SDS011;34202;52.536;6.042;2023-05-14T03:10:37;22.20;;;14.10;;
48403;SDS011;34202;52.536;6.042;2023-05-14T03:15:38;21.20;;;13.50;;
48403;SDS011;34202;52.536;6.042;2023-05-14T03:20:38;17.00;;;14.10;;
48403;SDS011;34202;52.536;6.042;2023-05-14T03:25:39;19.90;;;14.70;;
48403;SDS011;34202;52.536;6.042;2023-05-14T03:30:40;22.50;;;14.50;;
48403;SDS011;34202;52.536;6.042;2023-05-14T03:35:40;19.30;;;15.00;;
48403;SDS011;34202;52.536;6.042;2023-05-14T03:40:41;21.10;;;15.20;;
48403;SDS011;34202;52.536;6.042;2023-05-14T03:45:43;17.20;;;12.00;;
48403;SDS011;34202;52.536;6.042;2023-05-14T03:50:44;16.20;;;12.00;;
48403;SDS011;34202;52.536;6.042;2023-05-14T03:55:45;16.80;;;12.20;;
48403;SDS011;34202;52.536;6.042;2023-05-14T04:00:45;15.00;;;12.10;;
48403;SDS011;34202;52.536;6.042;2023-05-14T04:05:46;14.90;;;10.70;;
48403;SDS011;34202;52.536;6.042;2023-05-14T04:10:46;21.90;;;13.20;;
48403;SDS011;34202;52.536;6.042;2023-05-14T04:15:46;14.60;;;10.30;;
48403;SDS011;34202;52.536;6.042;2023-05-14T04:20:47;15.40;;;12.50;;
48403;SDS011;34202;52.536;6.042;2023-05-14T04:25:47;17.90;;;12.10;;
48403;SDS011;34202;52.536;6.042;2023-05-14T04:30:48;17.10;;;13.70;;
48403;SDS011;34202;52.536;6.042;2023-05-14T04:35:48;18.30;;;12.80;;
48403;SDS011;34202;52.536;6.042;2023-05-14T04:40:49;21.40;;;12.70;;
48403;SDS011;34202;52.536;6.042;2023-05-14T04:45:49;13.40;;;10.80;;
48403;SDS011;34202;52.536;6.042;2023-05-14T04:50:51;13.80;;;11.60;;
48403;SDS011;34202;52.536;6.042;2023-05-14T04:55:52;20.50;;;14.90;;
48403;SDS011;34202;52.536;6.042;2023-05-14T05:00:53;17.50;;;13.30;;
48403;SDS011;34202;52.536;6.042;2023-05-14T05:05:53;15.80;;;11.10;;
48403;SDS011;34202;52.536;6.042;2023-05-14T05:10:53;22.50;;;12.80;;
48403;SDS011;34202;52.536;6.042;2023-05-14T05:15:54;14.40;;;12.90;;
48403;SDS011;34202;52.536;6.042;2023-05-14T05:20:54;19.50;;;14.50;;
48403;SDS011;34202;52.536;6.042;2023-05-14T05:25:55;19.80;;;14.90;;
48403;SDS011;34202;52.536;6.042;2023-05-14T05:30:56;19.20;;;13.20;;
48403;SDS011;34202;52.536;6.042;2023-05-14T05:35:56;21.20;;;15.20;;
48403;SDS011;34202;52.536;6.042;2023-05-14T05:40:56;27.20;;;17.60;;
48403;SDS011;34202;52.536;6.042;2023-05-14T05:45:57;19.70;;;15.50;;
48403;SDS011;34202;52.536;6.042;2023-05-14T05:50:59;32.80;;;19.60;;
48403;SDS011;34202;52.536;6.042;2023-05-14T05:55:59;25.40;;;17.70;;
48403;SDS011;34202;52.536;6.042;2023-05-14T06:01:00;25.50;;;18.20;;
48403;SDS011;34202;52.536;6.042;2023-05-14T06:06:00;32.20;;;20.50;;
48403;SDS011;34202;52.536;6.042;2023-05-14T06:11:00;23.30;;;17.10;;
48403;SDS011;34202;52.536;6.042;2023-05-14T06:16:01;33.00;;;17.50;;
48403;SDS011;34202;52.536;6.042;2023-05-14T06:21:01;27.50;;;18.30;;
48403;SDS011;34202;52.536;6.042;2023-05-14T06:26:02;25.70;;;18.20;;
48403;SDS011;34202;52.536;6.042;2023-05-14T06:31:02;20.40;;;17.50;;
48403;SDS011;34202;52.536;6.042;2023-05-14T06:36:03;25.50;;;16.20;;
48403;SDS011;34202;52.536;6.042;2023-05-14T06:41:04;25.80;;;18.20;;
48403;SDS011;34202;52.536;6.042;2023-05-14T06:46:05;20.30;;;16.20;;
48403;SDS011;34202;52.536;6.042;2023-05-14T06:51:06;19.10;;;15.20;;
48403;SDS011;34202;52.536;6.042;2023-05-14T06:56:06;23.00;;;16.30;;
48403;SDS011;34202;52.536;6.042;2023-05-14T07:01:07;20.70;;;13.10;;
48403;SDS011;34202;52.536;6.042;2023-05-14T07:06:07;22.20;;;13.80;;
48403;SDS011;34202;52.536;6.042;2023-05-14T07:11:07;22.50;;;14.60;;
48403;SDS011;34202;52.536;6.042;2023-05-14T07:16:08;19.80;;;14.50;;
48403;SDS011;34202;52.536;6.042;2023-05-14T07:21:09;21.10;;;13.70;;
48403;SDS011;34202;52.536;6.042;2023-05-14T07:26:09;16.80;;;12.50;;
48403;SDS011;34202;52.536;6.042;2023-05-14T07:31:10;13.90;;;12.30;;
48403;SDS011;34202;52.536;6.042;2023-05-14T07:36:10;19.60;;;11.80;;
48403;SDS011;34202;52.536;6.042;2023-05-14T07:41:10;15.70;;;11.30;;
48403;SDS011;34202;52.536;6.042;2023-05-14T07:46:11;13.30;;;11.60;;
48403;SDS011;34202;52.536;6.042;2023-05-14T07:51:11;11.70;;;10.10;;
48403;SDS011;34202;52.536;6.042;2023-05-14T07:56:11;13.10;;;10.10;;
48403;SDS011;34202;52.536;6.042;2023-05-14T08:01:12;12.90;;;10.20;;
48403;SDS011;34202;52.536;6.042;2023-05-14T08:06:12;10.50;;;8.70;;
48403;SDS011;34202;52.536;6.042;2023-05-14T08:11:13;17.00;;;9.30;;
48403;SDS011;34202;52.536;6.042;2023-05-14T08:16:13;11.90;;;8.50;;
48403;SDS011;34202;52.536;6.042;2023-05-14T08:21:14;11.70;;;7.70;;
48403;SDS011;34202;52.536;6.042;2023-05-14T08:26:14;13.70;;;8.80;;
48403;SDS011;34202;52.536;6.042;2023-05-14T08:31:14;16.40;;;9.30;;
48403;SDS011;34202;52.536;6.042;2023-05-14T08:36:15;9.80;;;7.50;;
48403;SDS011;34202;52.536;6.042;2023-05-14T08:41:15;13.50;;;7.90;;
48403;SDS011;34202;52.536;6.042;2023-05-14T08:46:15;14.30;;;8.90;;
48403;SDS011;34202;52.536;6.042;2023-05-14T08:51:16;18.50;;;9.10;;
48403;SDS011;34202;52.536;6.042;2023-05-14T08:56:18;14.00;;;7.40;;
48403;SDS011;34202;52.536;6.042;2023-05-14T09:01:18;8.70;;;7.40;;
48403;SDS011;34202;52.536;6.042;2023-05-14T09:06:19;11.00;;;7.30;;
48403;SDS011;34202;52.536;6.042;2023-05-14T09:11:21;14.60;;;8.00;;
48403;SDS011;34202;52.536;6.042;2023-05-14T09:16:24;11.50;;;7.40;;
48403;SDS011;34202;52.536;6.042;2023-05-14T09:21:25;11.90;;;7.20;;
48403;SDS011;34202;52.536;6.042;2023-05-14T09:26:27;14.60;;;7.50;;
48403;SDS011;34202;52.536;6.042;2023-05-14T09:31:31;13.20;;;7.10;;
48403;SDS011;34202;52.536;6.042;2023-05-14T09:36:35;13.50;;;7.00;;
48403;SDS011;34202;52.536;6.042;2023-05-14T09:41:35;9.70;;;6.20;;
48403;SDS011;34202;52.536;6.042;2023-05-14T09:46:36;8.80;;;5.70;;
48403;SDS011;34202;52.536;6.042;2023-05-14T09:51:37;11.80;;;6.70;;
48403;SDS011;34202;52.536;6.042;2023-05-14T09:56:37;10.20;;;6.10;;
48403;SDS011;34202;52.536;6.042;2023-05-14T10:01:38;12.60;;;6.80;;
48403;SDS011;34202;52.536;6.042;2023-05-14T10:06:43;13.40;;;6.60;;
48403;SDS011;34202;52.536;6.042;2023-05-14T10:11:47;12.60;;;6.20;;
48403;SDS011;34202;52.536;6.042;2023-05-14T10:21:56;11.00;;;5.80;;
48403;SDS011;34202;52.536;6.042;2023-05-14T10:27:03;11.70;;;5.70;;
48403;SDS011;34202;52.536;6.042;2023-05-14T10:32:04;17.20;;;5.80;;
48403;SDS011;34202;52.536;6.042;2023-05-14T10:37:10;12.00;;;5.50;;
48403;SDS011;34202;52.536;6.042;2023-05-14T10:42:11;10.10;;;6.60;;
48403;SDS011;34202;52.536;6.042;2023-05-14T10:47:25;9.40;;;4.70;;
48403;SDS011;34202;52.536;6.042;2023-05-14T10:52:27;8.20;;;4.90;;
48403;SDS011;34202;52.536;6.042;2023-05-14T10:57:29;8.80;;;5.40;;
48403;SDS011;34202;52.536;6.042;2023-05-14T11:02:32;6.80;;;5.10;;
48403;SDS011;34202;52.536;6.042;2023-05-14T11:07:36;7.60;;;4.70;;
48403;SDS011;34202;52.536;6.042;2023-05-14T11:12:39;10.30;;;5.60;;
48403;SDS011;34202;52.536;6.042;2023-05-14T11:17:42;7.20;;;4.80;;
48403;SDS011;34202;52.536;6.042;2023-05-14T11:22:44;6.30;;;3.70;;
48403;SDS011;34202;52.536;6.042;2023-05-14T11:27:45;8.70;;;4.20;;
48403;SDS011;34202;52.536;6.042;2023-05-14T11:32:47;5.80;;;3.80;;
48403;SDS011;34202;52.536;6.042;2023-05-14T11:37:49;8.10;;;4.00;;
48403;SDS011;34202;52.536;6.042;2023-05-14T11:42:51;8.50;;;4.50;;
48403;SDS011;34202;52.536;6.042;2023-05-14T11:47:52;6.90;;;3.90;;
48403;SDS011;34202;52.536;6.042;2023-05-14T11:52:56;6.80;;;3.90;;
48403;SDS011;34202;52.536;6.042;2023-05-14T11:57:57;7.20;;;4.00;;
48403;SDS011;34202;52.536;6.042;2023-05-14T12:02:57;8.70;;;4.30;;
48403;SDS011;34202;52.536;6.042;2023-05-14T12:07:57;9.50;;;2.80;;
48403;SDS011;34202;52.536;6.042;2023-05-14T12:12:58;10.70;;;3.60;;
48403;SDS011;34202;52.536;6.042;2023-05-14T12:17:58;9.30;;;3.50;;
48403;SDS011;34202;52.536;6.042;2023-05-14T12:22:58;7.80;;;3.60;;
48403;SDS011;34202;52.536;6.042;2023-05-14T12:27:59;5.10;;;2.60;;
48403;SDS011;34202;52.536;6.042;2023-05-14T12:32:59;5.20;;;3.20;;
48403;SDS011;34202;52.536;6.042;2023-05-14T12:38:00;4.20;;;2.30;;
48403;SDS011;34202;52.536;6.042;2023-05-14T12:43:00;6.60;;;3.00;;
48403;SDS011;34202;52.536;6.042;2023-05-14T12:48:00;9.20;;;3.30;;
48403;SDS011;34202;52.536;6.042;2023-05-14T12:53:01;6.50;;;3.40;;
48403;SDS011;34202;52.536;6.042;2023-05-14T12:58:01;6.10;;;3.20;;
48403;SDS011;34202;52.536;6.042;2023-05-14T13:03:01;7.30;;;3.00;;
48403;SDS011;34202;52.536;6.042;2023-05-14T13:08:02;4.30;;;2.50;;
48403;SDS011;34202;52.536;6.042;2023-05-14T13:13:03;6.80;;;3.10;;
48403;SDS011;34202;52.536;6.042;2023-05-14T13:18:03;7.10;;;2.80;;
48403;SDS011;34202;52.536;6.042;2023-05-14T13:23:04;8.20;;;3.00;;
48403;SDS011;34202;52.536;6.042;2023-05-14T13:28:04;4.30;;;3.00;;
48403;SDS011;34202;52.536;6.042;2023-05-14T13:33:05;4.30;;;2.70;;
48403;SDS011;34202;52.536;6.042;2023-05-14T13:38:05;5.20;;;2.10;;
48403;SDS011;34202;52.536;6.042;2023-05-14T13:43:06;6.10;;;3.90;;
48403;SDS011;34202;52.536;6.042;2023-05-14T13:48:07;3.20;;;2.40;;
48403;SDS011;34202;52.536;6.042;2023-05-14T13:53:07;4.80;;;2.80;;
48403;SDS011;34202;52.536;6.042;2023-05-14T13:58:08;4.40;;;2.60;;
48403;SDS011;34202;52.536;6.042;2023-05-14T14:03:08;5.60;;;2.50;;
48403;SDS011;34202;52.536;6.042;2023-05-14T14:08:09;5.70;;;3.50;;
48403;SDS011;34202;52.536;6.042;2023-05-14T14:13:09;4.90;;;2.50;;
48403;SDS011;34202;52.536;6.042;2023-05-14T14:18:10;5.00;;;2.40;;
48403;SDS011;34202;52.536;6.042;2023-05-14T14:23:10;6.30;;;2.90;;
48403;SDS011;34202;52.536;6.042;2023-05-14T14:28:10;5.50;;;2.40;;
48403;SDS011;34202;52.536;6.042;2023-05-14T14:33:11;7.60;;;2.70;;
48403;SDS011;34202;52.536;6.042;2023-05-14T14:38:11;6.80;;;2.70;;
48403;SDS011;34202;52.536;6.042;2023-05-14T14:43:12;6.80;;;2.70;;
48403;SDS011;34202;52.536;6.042;2023-05-14T14:53:38;5.00;;;1.80;;
48403;SDS011;34202;52.536;6.042;2023-05-14T14:58:39;4.60;;;2.00;;
48403;SDS011;34202;52.536;6.042;2023-05-14T15:03:39;4.90;;;2.40;;
48403;SDS011;34202;52.536;6.042;2023-05-14T15:08:40;3.60;;;2.10;;
48403;SDS011;34202;52.536;6.042;2023-05-14T15:13:40;3.00;;;1.80;;
48403;SDS011;34202;52.536;6.042;2023-05-14T15:18:42;4.80;;;2.30;;
48403;SDS011;34202;52.536;6.042;2023-05-14T15:23:42;4.90;;;2.90;;
48403;SDS011;34202;52.536;6.042;2023-05-14T15:28:42;10.50;;;3.60;;
48403;SDS011;34202;52.536;6.042;2023-05-14T15:33:43;5.10;;;3.10;;
48403;SDS011;34202;52.536;6.042;2023-05-14T15:38:43;4.90;;;2.50;;
48403;SDS011;34202;52.536;6.042;2023-05-14T15:43:43;5.80;;;2.70;;
48403;SDS011;34202;52.536;6.042;2023-05-14T15:48:44;4.80;;;2.60;;
48403;SDS011;34202;52.536;6.042;2023-05-14T15:53:44;5.70;;;2.30;;
48403;SDS011;34202;52.536;6.042;2023-05-14T15:58:45;7.50;;;2.90;;
48403;SDS011;34202;52.536;6.042;2023-05-14T16:03:45;6.60;;;2.90;;
48403;SDS011;34202;52.536;6.042;2023-05-14T16:08:45;4.70;;;2.60;;
48403;SDS011;34202;52.536;6.042;2023-05-14T16:13:46;7.90;;;3.40;;
48403;SDS011;34202;52.536;6.042;2023-05-14T16:18:46;8.30;;;2.90;;
48403;SDS011;34202;52.536;6.042;2023-05-14T16:23:47;6.70;;;3.50;;
48403;SDS011;34202;52.536;6.042;2023-05-14T16:28:47;6.00;;;4.50;;
48403;SDS011;34202;52.536;6.042;2023-05-14T16:33:48;6.60;;;3.80;;
48403;SDS011;34202;52.536;6.042;2023-05-14T16:38:48;6.50;;;2.90;;
48403;SDS011;34202;52.536;6.042;2023-05-14T16:43:48;9.20;;;4.80;;
48403;SDS011;34202;52.536;6.042;2023-05-14T16:48:50;8.50;;;4.10;;
48403;SDS011;34202;52.536;6.042;2023-05-14T16:53:50;7.70;;;5.00;;
48403;SDS011;34202;52.536;6.042;2023-05-14T16:58:50;8.70;;;5.30;;
48403;SDS011;34202;52.536;6.042;2023-05-14T17:03:51;12.90;;;7.90;;
48403;SDS011;34202;52.536;6.042;2023-05-14T17:08:51;11.40;;;7.20;;
48403;SDS011;34202;52.536;6.042;2023-05-14T17:13:52;17.10;;;7.90;;
48403;SDS011;34202;52.536;6.042;2023-05-14T17:18:52;11.50;;;6.30;;
48403;SDS011;34202;52.536;6.042;2023-05-14T17:23:52;14.40;;;8.20;;
48403;SDS011;34202;52.536;6.042;2023-05-14T17:28:53;18.80;;;10.30;;
48403;SDS011;34202;52.536;6.042;2023-05-14T17:33:53;12.60;;;9.60;;
48403;SDS011;34202;52.536;6.042;2023-05-14T17:38:53;13.50;;;10.70;;
48403;SDS011;34202;52.536;6.042;2023-05-14T17:43:54;17.00;;;11.50;;
48403;SDS011;34202;52.536;6.042;2023-05-14T17:48:54;18.10;;;11.70;;
48403;SDS011;34202;52.536;6.042;2023-05-14T17:53:55;16.10;;;11.80;;
48403;SDS011;34202;52.536;6.042;2023-05-14T17:58:55;15.70;;;12.00;;
48403;SDS011;34202;52.536;6.042;2023-05-14T18:03:56;20.90;;;12.00;;
48403;SDS011;34202;52.536;6.042;2023-05-14T18:08:56;13.60;;;11.50;;
48403;SDS011;34202;52.536;6.042;2023-05-14T18:13:56;21.90;;;11.80;;
48403;SDS011;34202;52.536;6.042;2023-05-14T18:18:57;13.50;;;11.70;;
48403;SDS011;34202;52.536;6.042;2023-05-14T18:23:59;11.10;;;10.00;;
48403;SDS011;34202;52.536;6.042;2023-05-14T18:28:59;18.10;;;11.60;;
48403;SDS011;34202;52.536;6.042;2023-05-14T18:34:00;13.80;;;12.00;;
48403;SDS011;34202;52.536;6.042;2023-05-14T18:39:00;16.70;;;12.40;;
48403;SDS011;34202;52.536;6.042;2023-05-14T18:44:00;16.80;;;12.20;;
48403;SDS011;34202;52.536;6.042;2023-05-14T18:49:01;19.10;;;12.10;;
48403;SDS011;34202;52.536;6.042;2023-05-14T18:54:02;17.80;;;12.00;;
48403;SDS011;34202;52.536;6.042;2023-05-14T18:59:02;13.20;;;10.80;;
48403;SDS011;34202;52.536;6.042;2023-05-14T19:04:03;13.40;;;11.30;;
48403;SDS011;34202;52.536;6.042;2023-05-14T19:09:05;17.70;;;11.90;;
48403;SDS011;34202;52.536;6.042;2023-05-14T19:14:05;14.70;;;12.90;;
48403;SDS011;34202;52.536;6.042;2023-05-14T19:19:06;15.70;;;13.70;;
48403;SDS011;34202;52.536;6.042;2023-05-14T19:24:07;19.60;;;16.00;;
48403;SDS011;34202;52.536;6.042;2023-05-14T19:29:07;19.50;;;15.00;;
48403;SDS011;34202;52.536;6.042;2023-05-14T19:34:08;12.60;;;11.30;;
48403;SDS011;34202;52.536;6.042;2023-05-14T19:39:08;16.90;;;13.30;;
48403;SDS011;34202;52.536;6.042;2023-05-14T19:44:08;16.80;;;12.80;;
48403;SDS011;34202;52.536;6.042;2023-05-14T19:49:09;20.60;;;12.80;;
48403;SDS011;34202;52.536;6.042;2023-05-14T19:54:09;17.50;;;13.00;;
48403;SDS011;34202;52.536;6.042;2023-05-14T19:59:10;17.10;;;12.40;;
48403;SDS011;34202;52.536;6.042;2023-05-14T20:04:10;14.50;;;12.80;;
48403;SDS011;34202;52.536;6.042;2023-05-14T20:09:13;17.20;;;14.10;;
48403;SDS011;34202;52.536;6.042;2023-05-14T20:14:13;13.40;;;12.10;;
48403;SDS011;34202;52.536;6.042;2023-05-14T20:19:13;20.20;;;15.90;;
48403;SDS011;34202;52.536;6.042;2023-05-14T20:24:15;22.00;;;15.00;;
48403;SDS011;34202;52.536;6.042;2023-05-14T20:29:15;22.60;;;15.70;;
48403;SDS011;34202;52.536;6.042;2023-05-14T20:34:15;18.30;;;16.40;;
48403;SDS011;34202;52.536;6.042;2023-05-14T20:39:16;18.80;;;14.70;;
48403;SDS011;34202;52.536;6.042;2023-05-14T20:44:17;23.10;;;15.90;;
48403;SDS011;34202;52.536;6.042;2023-05-14T20:49:17;18.60;;;15.20;;
48403;SDS011;34202;52.536;6.042;2023-05-14T20:54:18;18.60;;;15.20;;
48403;SDS011;34202;52.536;6.042;2023-05-14T20:59:18;20.30;;;16.70;;
48403;SDS011;34202;52.536;6.042;2023-05-14T21:04:18;24.30;;;17.40;;
48403;SDS011;34202;52.536;6.042;2023-05-14T21:09:19;17.80;;;13.90;;
48403;SDS011;34202;52.536;6.042;2023-05-14T21:14:22;18.10;;;15.40;;
48403;SDS011;34202;52.536;6.042;2023-05-14T21:19:23;20.80;;;15.50;;
48403;SDS011;34202;52.536;6.042;2023-05-14T21:24:23;20.80;;;15.80;;
48403;SDS011;34202;52.536;6.042;2023-05-14T21:29:23;19.80;;;17.00;;
48403;SDS011;34202;52.536;6.042;2023-05-14T21:34:24;17.80;;;15.80;;
48403;SDS011;34202;52.536;6.042;2023-05-14T21:39:24;19.20;;;16.20;;
48403;SDS011;34202;52.536;6.042;2023-05-14T21:44:25;20.00;;;18.00;;
48403;SDS011;34202;52.536;6.042;2023-05-14T21:49:25;19.10;;;17.00;;
48403;SDS011;34202;52.536;6.042;2023-05-14T21:54:25;19.30;;;16.40;;
48403;SDS011;34202;52.536;6.042;2023-05-14T21:59:26;21.90;;;17.50;;
48403;SDS011;34202;52.536;6.042;2023-05-14T22:04:26;22.10;;;16.50;;
48403;SDS011;34202;52.536;6.042;2023-05-14T22:09:27;28.60;;;16.90;;
48403;SDS011;34202;52.536;6.042;2023-05-14T22:14:28;22.00;;;17.00;;
48403;SDS011;34202;52.536;6.042;2023-05-14T22:19:28;18.90;;;16.70;;
48403;SDS011;34202;52.536;6.042;2023-05-14T22:24:28;21.30;;;16.80;;
48403;SDS011;34202;52.536;6.042;2023-05-14T22:29:29;23.00;;;16.60;;
48403;SDS011;34202;52.536;6.042;2023-05-14T22:34:29;29.10;;;17.50;;
48403;SDS011;34202;52.536;6.042;2023-05-14T22:39:29;19.30;;;17.00;;
48403;SDS011;34202;52.536;6.042;2023-05-14T22:44:30;20.20;;;15.90;;
48403;SDS011;34202;52.536;6.042;2023-05-14T22:49:30;20.30;;;16.50;;
48403;SDS011;34202;52.536;6.042;2023-05-14T22:54:31;25.40;;;18.70;;
48403;SDS011;34202;52.536;6.042;2023-05-14T22:59:31;21.00;;;18.70;;
48403;SDS011;34202;52.536;6.042;2023-05-14T23:04:31;24.70;;;19.70;;
48403;SDS011;34202;52.536;6.042;2023-05-14T23:09:32;20.50;;;18.20;;
48403;SDS011;34202;52.536;6.042;2023-05-14T23:14:32;28.10;;;21.20;;
48403;SDS011;34202;52.536;6.042;2023-05-14T23:19:33;26.40;;;22.50;;
48403;SDS011;34202;52.536;6.042;2023-05-14T23:24:33;27.20;;;23.10;;
48403;SDS011;34202;52.536;6.042;2023-05-14T23:29:33;25.80;;;20.20;;
48403;SDS011;34202;52.536;6.042;2023-05-14T23:34:34;20.80;;;17.70;;
48403;SDS011;34202;52.536;6.042;2023-05-14T23:39:34;26.70;;;23.00;;
48403;SDS011;34202;52.536;6.042;2023-05-14T23:44:35;30.30;;;24.10;;
48403;SDS011;34202;52.536;6.042;2023-05-14T23:49:35;41.90;;;24.90;;
48403;SDS011;34202;52.536;6.042;2023-05-14T23:54:35;29.50;;;23.70;;
48403;SDS011;34202;52.536;6.042;2023-05-14T23:59:36;32.60;;;23.80;;
